sensor_id;sensor_type;location;lat;lon;timestamp;P1;durP1;ratioP1;P2;durP2;ratioP2
842;SDS011;407;48.884;9.126;2023-02-05T00:01:55;22.30;;;9.53;;
842;SDS011;407;48.884;9.126;2023-02-05T00:04:21;17.15;;;7.80;;
842;SDS011;407;48.884;9.126;2023-02-05T00:06:46;17.80;;;8.77;;
842;SDS011;407;48.884;9.126;2023-02-05T00:09:13;17.20;;;8.10;;
842;SDS011;407;48.884;9.126;2023-02-05T00:11:38;18.90;;;9.33;;
842;SDS011;407;48.884;9.126;2023-02-05T00:14:04;20.65;;;8.38;;
842;SDS011;407;48.884;9.126;2023-02-05T00:16:31;17.35;;;7.68;;
842;SDS011;407;48.884;9.126;2023-02-05T00:18:59;23.07;;;9.33;;
842;SDS011;407;48.884;9.126;2023-02-05T00:21:24;19.17;;;8.60;;
842;SDS011;407;48.884;9.126;2023-02-05T00:23:50;18.02;;;8.80;;
842;SDS011;407;48.884;9.126;2023-02-05T00:26:17;19.02;;;8.98;;
842;SDS011;407;48.884;9.126;2023-02-05T00:28:43;18.02;;;8.98;;
842;SDS011;407;48.884;9.126;2023-02-05T00:31:18;23.25;;;7.85;;
842;SDS011;407;48.884;9.126;2023-02-05T00:33:45;19.50;;;8.40;;
842;SDS011;407;48.884;9.126;2023-02-05T00:36:12;19.67;;;8.85;;
842;SDS011;407;48.884;9.126;2023-02-05T00:38:39;21.65;;;8.75;;
842;SDS011;407;48.884;9.126;2023-02-05T00:41:06;23.40;;;9.10;;
842;SDS011;407;48.884;9.126;2023-02-05T00:43:32;21.20;;;8.70;;
842;SDS011;407;48.884;9.126;2023-02-05T00:45:57;16.70;;;8.40;;
842;SDS011;407;48.884;9.126;2023-02-05T00:48:23;19.40;;;8.38;;
842;SDS011;407;48.884;9.126;2023-02-05T00:50:49;24.73;;;10.13;;
842;SDS011;407;48.884;9.126;2023-02-05T00:53:15;24.48;;;8.27;;
842;SDS011;407;48.884;9.126;2023-02-05T00:55:41;20.15;;;8.48;;
842;SDS011;407;48.884;9.126;2023-02-05T00:58:06;15.60;;;7.60;;
842;SDS011;407;48.884;9.126;2023-02-05T01:00:32;16.13;;;8.43;;
842;SDS011;407;48.884;9.126;2023-02-05T01:02:58;14.87;;;7.60;;
842;SDS011;407;48.884;9.126;2023-02-05T01:05:24;16.50;;;8.70;;
842;SDS011;407;48.884;9.126;2023-02-05T01:07:49;18.93;;;7.90;;
842;SDS011;407;48.884;9.126;2023-02-05T01:10:15;18.33;;;8.15;;
842;SDS011;407;48.884;9.126;2023-02-05T01:12:41;16.42;;;8.02;;
842;SDS011;407;48.884;9.126;2023-02-05T01:15:06;17.00;;;7.87;;
842;SDS011;407;48.884;9.126;2023-02-05T01:17:33;17.63;;;8.23;;
842;SDS011;407;48.884;9.126;2023-02-05T01:19:58;17.93;;;8.27;;
842;SDS011;407;48.884;9.126;2023-02-05T01:22:24;16.15;;;7.43;;
842;SDS011;407;48.884;9.126;2023-02-05T01:24:50;16.30;;;7.47;;
842;SDS011;407;48.884;9.126;2023-02-05T01:27:16;19.73;;;7.40;;
842;SDS011;407;48.884;9.126;2023-02-05T01:29:41;14.45;;;6.80;;
842;SDS011;407;48.884;9.126;2023-02-05T01:32:07;16.08;;;7.30;;
842;SDS011;407;48.884;9.126;2023-02-05T01:34:33;15.93;;;7.73;;
842;SDS011;407;48.884;9.126;2023-02-05T01:36:58;16.73;;;7.70;;
842;SDS011;407;48.884;9.126;2023-02-05T01:39:24;17.43;;;7.47;;
842;SDS011;407;48.884;9.126;2023-02-05T01:41:49;15.63;;;7.50;;
842;SDS011;407;48.884;9.126;2023-02-05T01:44:19;15.15;;;7.60;;
842;SDS011;407;48.884;9.126;2023-02-05T01:46:48;14.70;;;7.30;;
842;SDS011;407;48.884;9.126;2023-02-05T01:49:34;15.95;;;6.97;;
842;SDS011;407;48.884;9.126;2023-02-05T01:52:06;15.43;;;6.88;;
842;SDS011;407;48.884;9.126;2023-02-05T01:54:37;15.18;;;7.15;;
842;SDS011;407;48.884;9.126;2023-02-05T01:57:10;13.80;;;6.70;;
842;SDS011;407;48.884;9.126;2023-02-05T01:59:40;13.52;;;6.90;;
842;SDS011;407;48.884;9.126;2023-02-05T02:02:09;15.13;;;7.05;;
842;SDS011;407;48.884;9.126;2023-02-05T02:04:46;17.85;;;7.20;;
842;SDS011;407;48.884;9.126;2023-02-05T02:07:17;13.30;;;7.63;;
842;SDS011;407;48.884;9.126;2023-02-05T02:09:45;12.93;;;6.20;;
842;SDS011;407;48.884;9.126;2023-02-05T02:12:13;16.95;;;7.38;;
842;SDS011;407;48.884;9.126;2023-02-05T02:14:42;14.85;;;7.60;;
842;SDS011;407;48.884;9.126;2023-02-05T02:17:11;15.25;;;7.60;;
842;SDS011;407;48.884;9.126;2023-02-05T02:19:49;14.30;;;7.45;;
842;SDS011;407;48.884;9.126;2023-02-05T02:38:36;13.48;;;6.90;;
842;SDS011;407;48.884;9.126;2023-02-05T02:41:11;15.15;;;7.30;;
842;SDS011;407;48.884;9.126;2023-02-05T02:46:31;15.23;;;7.20;;
842;SDS011;407;48.884;9.126;2023-02-05T02:49:05;13.05;;;6.72;;
842;SDS011;407;48.884;9.126;2023-02-05T02:51:35;16.90;;;7.38;;
842;SDS011;407;48.884;9.126;2023-02-05T02:54:05;12.23;;;6.10;;
842;SDS011;407;48.884;9.126;2023-02-05T02:56:34;13.77;;;6.90;;
842;SDS011;407;48.884;9.126;2023-02-05T02:59:10;15.90;;;6.20;;
842;SDS011;407;48.884;9.126;2023-02-05T03:01:42;18.58;;;8.82;;
842;SDS011;407;48.884;9.126;2023-02-05T03:04:18;15.88;;;8.23;;
842;SDS011;407;48.884;9.126;2023-02-05T03:06:49;19.10;;;8.68;;
842;SDS011;407;48.884;9.126;2023-02-05T03:09:31;16.08;;;7.95;;
842;SDS011;407;48.884;9.126;2023-02-05T03:12:03;16.63;;;8.65;;
842;SDS011;407;48.884;9.126;2023-02-05T03:14:31;15.27;;;7.20;;
842;SDS011;407;48.884;9.126;2023-02-05T03:16:56;13.05;;;6.63;;
842;SDS011;407;48.884;9.126;2023-02-05T03:19:22;15.00;;;7.40;;
842;SDS011;407;48.884;9.126;2023-02-05T03:21:49;16.00;;;7.30;;
842;SDS011;407;48.884;9.126;2023-02-05T03:24:18;13.30;;;6.22;;
842;SDS011;407;48.884;9.126;2023-02-05T03:26:44;14.37;;;6.70;;
842;SDS011;407;48.884;9.126;2023-02-05T03:29:10;13.23;;;7.13;;
842;SDS011;407;48.884;9.126;2023-02-05T03:34:37;13.73;;;6.88;;
842;SDS011;407;48.884;9.126;2023-02-05T03:40:22;14.73;;;6.55;;
842;SDS011;407;48.884;9.126;2023-02-05T03:43:13;13.95;;;6.80;;
842;SDS011;407;48.884;9.126;2023-02-05T03:45:55;18.77;;;6.35;;
842;SDS011;407;48.884;9.126;2023-02-05T03:48:38;16.40;;;6.03;;
842;SDS011;407;48.884;9.126;2023-02-05T03:54:16;15.02;;;6.80;;
842;SDS011;407;48.884;9.126;2023-02-05T03:57:15;15.43;;;7.13;;
842;SDS011;407;48.884;9.126;2023-02-05T03:59:50;14.65;;;6.50;;
842;SDS011;407;48.884;9.126;2023-02-05T04:02:17;11.20;;;6.43;;
842;SDS011;407;48.884;9.126;2023-02-05T04:04:44;20.20;;;7.38;;
842;SDS011;407;48.884;9.126;2023-02-05T04:07:10;14.73;;;7.10;;
842;SDS011;407;48.884;9.126;2023-02-05T04:09:36;15.55;;;6.43;;
842;SDS011;407;48.884;9.126;2023-02-05T04:12:02;14.07;;;7.00;;
842;SDS011;407;48.884;9.126;2023-02-05T04:14:27;14.03;;;6.80;;
842;SDS011;407;48.884;9.126;2023-02-05T04:16:53;17.23;;;7.30;;
842;SDS011;407;48.884;9.126;2023-02-05T04:19:18;16.42;;;7.13;;
842;SDS011;407;48.884;9.126;2023-02-05T04:21:44;16.07;;;6.77;;
842;SDS011;407;48.884;9.126;2023-02-05T04:24:09;19.80;;;7.43;;
842;SDS011;407;48.884;9.126;2023-02-05T04:26:35;15.20;;;7.10;;
842;SDS011;407;48.884;9.126;2023-02-05T04:29:01;14.48;;;6.15;;
842;SDS011;407;48.884;9.126;2023-02-05T04:31:26;13.37;;;6.00;;
842;SDS011;407;48.884;9.126;2023-02-05T04:33:52;18.23;;;7.53;;
842;SDS011;407;48.884;9.126;2023-02-05T04:36:17;12.83;;;6.27;;
842;SDS011;407;48.884;9.126;2023-02-05T04:38:43;17.00;;;6.30;;
842;SDS011;407;48.884;9.126;2023-02-05T04:41:08;14.00;;;6.90;;
842;SDS011;407;48.884;9.126;2023-02-05T04:43:34;14.73;;;7.07;;
842;SDS011;407;48.884;9.126;2023-02-05T04:46:04;15.30;;;7.07;;
842;SDS011;407;48.884;9.126;2023-02-05T04:48:30;18.27;;;7.43;;
842;SDS011;407;48.884;9.126;2023-02-05T04:50:56;16.33;;;7.20;;
842;SDS011;407;48.884;9.126;2023-02-05T04:53:21;18.80;;;7.00;;
842;SDS011;407;48.884;9.126;2023-02-05T04:55:47;13.00;;;6.73;;
842;SDS011;407;48.884;9.126;2023-02-05T04:58:12;18.03;;;7.17;;
842;SDS011;407;48.884;9.126;2023-02-05T05:00:38;14.50;;;7.50;;
842;SDS011;407;48.884;9.126;2023-02-05T05:03:03;14.27;;;6.72;;
842;SDS011;407;48.884;9.126;2023-02-05T05:05:29;14.90;;;7.23;;
842;SDS011;407;48.884;9.126;2023-02-05T05:07:55;14.15;;;6.88;;
842;SDS011;407;48.884;9.126;2023-02-05T05:10:22;19.15;;;7.93;;
842;SDS011;407;48.884;9.126;2023-02-05T05:12:48;15.43;;;6.80;;
842;SDS011;407;48.884;9.126;2023-02-05T05:15:13;15.50;;;7.60;;
842;SDS011;407;48.884;9.126;2023-02-05T05:17:39;14.75;;;6.50;;
842;SDS011;407;48.884;9.126;2023-02-05T05:20:05;18.53;;;7.80;;
842;SDS011;407;48.884;9.126;2023-02-05T05:22:30;15.67;;;7.60;;
842;SDS011;407;48.884;9.126;2023-02-05T05:24:56;15.30;;;7.93;;
842;SDS011;407;48.884;9.126;2023-02-05T05:27:22;14.48;;;6.82;;
842;SDS011;407;48.884;9.126;2023-02-05T05:29:48;14.90;;;7.45;;
842;SDS011;407;48.884;9.126;2023-02-05T05:32:14;13.05;;;6.40;;
842;SDS011;407;48.884;9.126;2023-02-05T05:34:40;17.25;;;7.93;;
842;SDS011;407;48.884;9.126;2023-02-05T05:37:05;14.70;;;6.83;;
842;SDS011;407;48.884;9.126;2023-02-05T05:39:31;15.57;;;6.93;;
842;SDS011;407;48.884;9.126;2023-02-05T05:42:15;16.17;;;7.32;;
842;SDS011;407;48.884;9.126;2023-02-05T05:44:59;16.52;;;7.40;;
842;SDS011;407;48.884;9.126;2023-02-05T05:47:25;14.77;;;8.20;;
842;SDS011;407;48.884;9.126;2023-02-05T05:49:51;15.30;;;7.88;;
842;SDS011;407;48.884;9.126;2023-02-05T05:52:16;14.40;;;7.20;;
842;SDS011;407;48.884;9.126;2023-02-05T05:54:42;16.40;;;7.43;;
842;SDS011;407;48.884;9.126;2023-02-05T05:57:08;20.03;;;7.73;;
842;SDS011;407;48.884;9.126;2023-02-05T05:59:33;19.70;;;8.30;;
842;SDS011;407;48.884;9.126;2023-02-05T06:01:59;18.25;;;8.52;;
842;SDS011;407;48.884;9.126;2023-02-05T06:04:26;18.33;;;7.78;;
842;SDS011;407;48.884;9.126;2023-02-05T06:06:52;14.50;;;7.60;;
842;SDS011;407;48.884;9.126;2023-02-05T06:09:18;14.10;;;7.37;;
842;SDS011;407;48.884;9.126;2023-02-05T06:11:45;18.80;;;7.07;;
842;SDS011;407;48.884;9.126;2023-02-05T06:14:11;15.52;;;7.80;;
842;SDS011;407;48.884;9.126;2023-02-05T06:16:38;15.52;;;7.63;;
842;SDS011;407;48.884;9.126;2023-02-05T06:19:04;15.23;;;7.55;;
842;SDS011;407;48.884;9.126;2023-02-05T06:21:29;16.10;;;7.57;;
842;SDS011;407;48.884;9.126;2023-02-05T06:23:55;18.10;;;8.03;;
842;SDS011;407;48.884;9.126;2023-02-05T06:26:20;17.35;;;7.63;;
842;SDS011;407;48.884;9.126;2023-02-05T06:28:46;17.00;;;8.10;;
842;SDS011;407;48.884;9.126;2023-02-05T06:31:11;12.60;;;6.75;;
842;SDS011;407;48.884;9.126;2023-02-05T06:33:37;14.67;;;8.00;;
842;SDS011;407;48.884;9.126;2023-02-05T06:36:03;17.80;;;7.90;;
842;SDS011;407;48.884;9.126;2023-02-05T06:38:29;18.17;;;7.65;;
842;SDS011;407;48.884;9.126;2023-02-05T06:40:54;19.50;;;8.40;;
842;SDS011;407;48.884;9.126;2023-02-05T06:43:20;16.70;;;7.13;;
842;SDS011;407;48.884;9.126;2023-02-05T06:45:45;16.30;;;7.60;;
842;SDS011;407;48.884;9.126;2023-02-05T06:48:11;17.83;;;7.60;;
842;SDS011;407;48.884;9.126;2023-02-05T06:50:37;15.00;;;7.30;;
842;SDS011;407;48.884;9.126;2023-02-05T06:53:02;16.43;;;7.03;;
842;SDS011;407;48.884;9.126;2023-02-05T06:55:28;18.05;;;8.10;;
842;SDS011;407;48.884;9.126;2023-02-05T06:57:53;18.60;;;7.50;;
842;SDS011;407;48.884;9.126;2023-02-05T07:00:19;16.50;;;7.20;;
842;SDS011;407;48.884;9.126;2023-02-05T07:02:45;16.23;;;7.20;;
842;SDS011;407;48.884;9.126;2023-02-05T07:05:10;14.57;;;7.50;;
842;SDS011;407;48.884;9.126;2023-02-05T07:07:36;16.17;;;7.82;;
842;SDS011;407;48.884;9.126;2023-02-05T07:10:02;19.60;;;8.10;;
842;SDS011;407;48.884;9.126;2023-02-05T07:12:28;16.57;;;7.60;;
842;SDS011;407;48.884;9.126;2023-02-05T07:14:54;17.17;;;7.10;;
842;SDS011;407;48.884;9.126;2023-02-05T07:17:19;20.42;;;7.10;;
842;SDS011;407;48.884;9.126;2023-02-05T07:19:46;14.73;;;7.07;;
842;SDS011;407;48.884;9.126;2023-02-05T07:22:12;13.77;;;6.90;;
842;SDS011;407;48.884;9.126;2023-02-05T07:24:38;12.82;;;6.30;;
842;SDS011;407;48.884;9.126;2023-02-05T07:27:04;14.30;;;7.50;;
842;SDS011;407;48.884;9.126;2023-02-05T07:29:30;15.80;;;7.13;;
842;SDS011;407;48.884;9.126;2023-02-05T07:31:55;15.83;;;7.60;;
842;SDS011;407;48.884;9.126;2023-02-05T07:34:21;11.90;;;6.30;;
842;SDS011;407;48.884;9.126;2023-02-05T07:36:50;15.88;;;6.60;;
842;SDS011;407;48.884;9.126;2023-02-05T07:39:16;18.60;;;7.55;;
842;SDS011;407;48.884;9.126;2023-02-05T07:41:42;17.70;;;7.85;;
842;SDS011;407;48.884;9.126;2023-02-05T07:44:07;17.73;;;8.80;;
842;SDS011;407;48.884;9.126;2023-02-05T07:46:33;15.30;;;7.20;;
842;SDS011;407;48.884;9.126;2023-02-05T07:48:59;14.27;;;7.00;;
842;SDS011;407;48.884;9.126;2023-02-05T07:51:24;16.20;;;7.57;;
842;SDS011;407;48.884;9.126;2023-02-05T07:53:50;13.20;;;7.20;;
842;SDS011;407;48.884;9.126;2023-02-05T07:56:16;14.07;;;6.88;;
842;SDS011;407;48.884;9.126;2023-02-05T07:58:45;17.02;;;6.90;;
842;SDS011;407;48.884;9.126;2023-02-05T08:01:11;17.02;;;7.85;;
842;SDS011;407;48.884;9.126;2023-02-05T08:03:37;17.63;;;7.77;;
842;SDS011;407;48.884;9.126;2023-02-05T08:06:03;17.85;;;7.07;;
842;SDS011;407;48.884;9.126;2023-02-05T08:08:30;17.77;;;7.40;;
842;SDS011;407;48.884;9.126;2023-02-05T08:10:56;18.50;;;7.00;;
842;SDS011;407;48.884;9.126;2023-02-05T08:13:24;14.95;;;6.88;;
842;SDS011;407;48.884;9.126;2023-02-05T08:15:50;17.67;;;7.30;;
842;SDS011;407;48.884;9.126;2023-02-05T08:18:15;15.73;;;7.23;;
842;SDS011;407;48.884;9.126;2023-02-05T08:20:41;14.48;;;6.18;;
842;SDS011;407;48.884;9.126;2023-02-05T08:23:06;13.77;;;7.03;;
842;SDS011;407;48.884;9.126;2023-02-05T08:25:32;14.37;;;7.20;;
842;SDS011;407;48.884;9.126;2023-02-05T08:27:57;16.17;;;7.40;;
842;SDS011;407;48.884;9.126;2023-02-05T08:30:23;14.95;;;6.28;;
842;SDS011;407;48.884;9.126;2023-02-05T08:32:49;17.63;;;6.50;;
842;SDS011;407;48.884;9.126;2023-02-05T08:35:15;18.00;;;6.63;;
842;SDS011;407;48.884;9.126;2023-02-05T08:37:41;11.45;;;6.50;;
842;SDS011;407;48.884;9.126;2023-02-05T08:40:07;14.55;;;7.40;;
842;SDS011;407;48.884;9.126;2023-02-05T08:42:33;11.50;;;6.22;;
842;SDS011;407;48.884;9.126;2023-02-05T08:44:59;16.33;;;7.00;;
842;SDS011;407;48.884;9.126;2023-02-05T08:47:25;15.10;;;6.93;;
842;SDS011;407;48.884;9.126;2023-02-05T08:49:51;17.65;;;6.60;;
842;SDS011;407;48.884;9.126;2023-02-05T08:52:17;17.83;;;7.00;;
842;SDS011;407;48.884;9.126;2023-02-05T08:54:43;13.45;;;6.10;;
842;SDS011;407;48.884;9.126;2023-02-05T08:57:08;17.27;;;6.97;;
842;SDS011;407;48.884;9.126;2023-02-05T08:59:34;16.10;;;7.30;;
842;SDS011;407;48.884;9.126;2023-02-05T09:02:00;15.73;;;7.30;;
842;SDS011;407;48.884;9.126;2023-02-05T09:04:26;17.42;;;8.10;;
842;SDS011;407;48.884;9.126;2023-02-05T09:06:52;15.93;;;7.25;;
842;SDS011;407;48.884;9.126;2023-02-05T09:09:17;15.97;;;7.00;;
842;SDS011;407;48.884;9.126;2023-02-05T09:11:47;17.70;;;7.50;;
842;SDS011;407;48.884;9.126;2023-02-05T09:14:13;16.30;;;7.60;;
842;SDS011;407;48.884;9.126;2023-02-05T09:16:39;17.23;;;7.47;;
842;SDS011;407;48.884;9.126;2023-02-05T09:19:05;19.10;;;6.77;;
842;SDS011;407;48.884;9.126;2023-02-05T09:21:32;15.75;;;6.68;;
842;SDS011;407;48.884;9.126;2023-02-05T09:23:58;15.63;;;7.00;;
842;SDS011;407;48.884;9.126;2023-02-05T09:26:24;16.85;;;6.00;;
842;SDS011;407;48.884;9.126;2023-02-05T09:28:50;17.52;;;6.57;;
842;SDS011;407;48.884;9.126;2023-02-05T09:31:17;13.90;;;6.03;;
842;SDS011;407;48.884;9.126;2023-02-05T09:33:44;12.10;;;5.70;;
842;SDS011;407;48.884;9.126;2023-02-05T09:36:14;13.20;;;5.80;;
842;SDS011;407;48.884;9.126;2023-02-05T09:38:41;14.05;;;5.70;;
842;SDS011;407;48.884;9.126;2023-02-05T09:41:09;12.77;;;5.30;;
842;SDS011;407;48.884;9.126;2023-02-05T09:43:44;12.85;;;4.97;;
842;SDS011;407;48.884;9.126;2023-02-05T09:48:57;14.90;;;5.85;;
842;SDS011;407;48.884;9.126;2023-02-05T09:51:40;18.13;;;7.32;;
842;SDS011;407;48.884;9.126;2023-02-05T09:54:24;14.75;;;6.30;;
842;SDS011;407;48.884;9.126;2023-02-05T09:56:54;12.88;;;6.75;;
842;SDS011;407;48.884;9.126;2023-02-05T09:59:24;17.55;;;8.50;;
842;SDS011;407;48.884;9.126;2023-02-05T10:01:55;17.10;;;7.88;;
842;SDS011;407;48.884;9.126;2023-02-05T10:04:27;19.20;;;8.10;;
842;SDS011;407;48.884;9.126;2023-02-05T10:09:54;17.70;;;7.00;;
842;SDS011;407;48.884;9.126;2023-02-05T10:21:38;19.13;;;7.32;;
842;SDS011;407;48.884;9.126;2023-02-05T10:26:49;20.58;;;8.25;;
842;SDS011;407;48.884;9.126;2023-02-05T10:29:35;21.35;;;8.35;;
842;SDS011;407;48.884;9.126;2023-02-05T10:32:19;16.33;;;7.72;;
842;SDS011;407;48.884;9.126;2023-02-05T10:34:49;17.63;;;8.27;;
842;SDS011;407;48.884;9.126;2023-02-05T10:37:23;20.73;;;8.20;;
842;SDS011;407;48.884;9.126;2023-02-05T10:40:09;17.55;;;8.80;;
842;SDS011;407;48.884;9.126;2023-02-05T10:45:55;18.88;;;9.50;;
842;SDS011;407;48.884;9.126;2023-02-05T10:48:24;18.15;;;8.18;;
842;SDS011;407;48.884;9.126;2023-02-05T10:51:11;18.73;;;7.70;;
842;SDS011;407;48.884;9.126;2023-02-05T10:53:40;17.93;;;8.50;;
842;SDS011;407;48.884;9.126;2023-02-05T10:56:06;20.33;;;8.97;;
842;SDS011;407;48.884;9.126;2023-02-05T10:58:37;19.13;;;9.98;;
842;SDS011;407;48.884;9.126;2023-02-05T11:01:13;22.20;;;11.53;;
842;SDS011;407;48.884;9.126;2023-02-05T11:04:09;17.40;;;8.32;;
842;SDS011;407;48.884;9.126;2023-02-05T11:06:39;20.55;;;9.25;;
842;SDS011;407;48.884;9.126;2023-02-05T11:09:26;16.73;;;8.10;;
842;SDS011;407;48.884;9.126;2023-02-05T11:11:54;18.13;;;9.48;;
842;SDS011;407;48.884;9.126;2023-02-05T11:14:35;18.88;;;8.98;;
842;SDS011;407;48.884;9.126;2023-02-05T11:17:19;18.85;;;8.43;;
842;SDS011;407;48.884;9.126;2023-02-05T11:20:02;18.33;;;8.35;;
842;SDS011;407;48.884;9.126;2023-02-05T11:22:31;16.73;;;8.32;;
842;SDS011;407;48.884;9.126;2023-02-05T11:25:06;18.90;;;8.83;;
842;SDS011;407;48.884;9.126;2023-02-05T11:27:37;18.15;;;8.82;;
842;SDS011;407;48.884;9.126;2023-02-05T11:30:16;18.27;;;9.27;;
842;SDS011;407;48.884;9.126;2023-02-05T11:32:54;20.83;;;7.95;;
842;SDS011;407;48.884;9.126;2023-02-05T11:40:27;19.55;;;7.88;;
842;SDS011;407;48.884;9.126;2023-02-05T11:45:38;18.33;;;7.07;;
842;SDS011;407;48.884;9.126;2023-02-05T11:48:05;23.73;;;7.70;;
842;SDS011;407;48.884;9.126;2023-02-05T11:50:45;19.73;;;10.07;;
842;SDS011;407;48.884;9.126;2023-02-05T11:53:12;14.30;;;7.32;;
842;SDS011;407;48.884;9.126;2023-02-05T11:55:40;24.80;;;12.45;;
842;SDS011;407;48.884;9.126;2023-02-05T11:58:18;16.17;;;8.55;;
842;SDS011;407;48.884;9.126;2023-02-05T12:00:54;18.00;;;8.35;;
842;SDS011;407;48.884;9.126;2023-02-05T12:03:22;18.85;;;8.82;;
842;SDS011;407;48.884;9.126;2023-02-05T12:05:56;18.53;;;7.43;;
842;SDS011;407;48.884;9.126;2023-02-05T12:14:27;18.25;;;8.20;;
842;SDS011;407;48.884;9.126;2023-02-05T12:16:48;21.80;;;8.90;;
842;SDS011;407;48.884;9.126;2023-02-05T12:19:21;18.95;;;8.65;;
842;SDS011;407;48.884;9.126;2023-02-05T12:21:50;14.35;;;7.38;;
842;SDS011;407;48.884;9.126;2023-02-05T12:32:50;17.85;;;8.60;;
842;SDS011;407;48.884;9.126;2023-02-05T12:35:40;16.55;;;9.00;;
842;SDS011;407;48.884;9.126;2023-02-05T12:38:20;15.88;;;8.52;;
842;SDS011;407;48.884;9.126;2023-02-05T12:43:32;19.88;;;8.65;;
842;SDS011;407;48.884;9.126;2023-02-05T12:46:07;16.92;;;8.30;;
842;SDS011;407;48.884;9.126;2023-02-05T12:51:54;19.63;;;9.20;;
842;SDS011;407;48.884;9.126;2023-02-05T12:54:38;19.85;;;9.15;;
842;SDS011;407;48.884;9.126;2023-02-05T12:57:10;15.77;;;7.50;;
842;SDS011;407;48.884;9.126;2023-02-05T12:59:54;17.10;;;8.38;;
842;SDS011;407;48.884;9.126;2023-02-05T13:10:57;18.58;;;9.23;;
842;SDS011;407;48.884;9.126;2023-02-05T13:13:29;19.97;;;8.33;;
842;SDS011;407;48.884;9.126;2023-02-05T13:16:01;30.55;;;12.52;;
842;SDS011;407;48.884;9.126;2023-02-05T13:18:40;37.88;;;16.13;;
842;SDS011;407;48.884;9.126;2023-02-05T13:21:12;30.60;;;12.43;;
842;SDS011;407;48.884;9.126;2023-02-05T13:27:15;12.80;;;5.97;;
842;SDS011;407;48.884;9.126;2023-02-05T13:30:22;12.73;;;5.97;;
842;SDS011;407;48.884;9.126;2023-02-05T13:32:54;14.80;;;6.60;;
842;SDS011;407;48.884;9.126;2023-02-05T13:35:23;13.52;;;6.35;;
842;SDS011;407;48.884;9.126;2023-02-05T13:46:53;8.27;;;3.63;;
842;SDS011;407;48.884;9.126;2023-02-05T13:58:27;10.33;;;4.30;;
842;SDS011;407;48.884;9.126;2023-02-05T14:03:54;9.13;;;3.30;;
842;SDS011;407;48.884;9.126;2023-02-05T14:09:00;10.07;;;3.10;;
842;SDS011;407;48.884;9.126;2023-02-05T14:11:54;7.60;;;2.58;;
842;SDS011;407;48.884;9.126;2023-02-05T14:14:34;6.65;;;2.50;;
842;SDS011;407;48.884;9.126;2023-02-05T14:19:54;8.43;;;3.15;;
842;SDS011;407;48.884;9.126;2023-02-05T14:22:32;7.20;;;2.70;;
842;SDS011;407;48.884;9.126;2023-02-05T14:24:58;9.20;;;3.23;;
842;SDS011;407;48.884;9.126;2023-02-05T14:41:50;8.13;;;3.13;;
842;SDS011;407;48.884;9.126;2023-02-05T14:44:38;9.25;;;3.10;;
842;SDS011;407;48.884;9.126;2023-02-05T14:47:19;7.95;;;2.90;;
842;SDS011;407;48.884;9.126;2023-02-05T14:49:50;9.38;;;4.18;;
842;SDS011;407;48.884;9.126;2023-02-05T14:52:29;8.05;;;3.40;;
842;SDS011;407;48.884;9.126;2023-02-05T15:08:21;8.93;;;3.70;;
842;SDS011;407;48.884;9.126;2023-02-05T15:10:55;7.80;;;3.50;;
842;SDS011;407;48.884;9.126;2023-02-05T15:13:35;8.43;;;3.30;;
842;SDS011;407;48.884;9.126;2023-02-05T15:19:21;7.70;;;3.10;;
842;SDS011;407;48.884;9.126;2023-02-05T15:21:24;9.75;;;3.35;;
842;SDS011;407;48.884;9.126;2023-02-05T15:29:17;8.30;;;3.30;;
842;SDS011;407;48.884;9.126;2023-02-05T15:31:57;7.43;;;3.03;;
842;SDS011;407;48.884;9.126;2023-02-05T15:39:46;8.73;;;3.30;;
842;SDS011;407;48.884;9.126;2023-02-05T15:42:14;7.43;;;3.30;;
842;SDS011;407;48.884;9.126;2023-02-05T15:44:43;8.48;;;3.78;;
842;SDS011;407;48.884;9.126;2023-02-05T15:47:14;9.13;;;3.90;;
842;SDS011;407;48.884;9.126;2023-02-05T15:49:43;9.05;;;3.40;;
842;SDS011;407;48.884;9.126;2023-02-05T15:52:19;7.78;;;3.25;;
842;SDS011;407;48.884;9.126;2023-02-05T15:54:47;7.40;;;3.00;;
842;SDS011;407;48.884;9.126;2023-02-05T15:57:18;7.97;;;3.10;;
842;SDS011;407;48.884;9.126;2023-02-05T15:59:48;9.07;;;3.60;;
842;SDS011;407;48.884;9.126;2023-02-05T16:02:19;10.10;;;3.97;;
842;SDS011;407;48.884;9.126;2023-02-05T16:04:56;7.70;;;3.20;;
842;SDS011;407;48.884;9.126;2023-02-05T16:07:39;7.10;;;3.20;;
842;SDS011;407;48.884;9.126;2023-02-05T16:13:05;8.07;;;3.80;;
842;SDS011;407;48.884;9.126;2023-02-05T16:15:45;9.30;;;4.07;;
842;SDS011;407;48.884;9.126;2023-02-05T16:21:11;10.82;;;5.45;;
842;SDS011;407;48.884;9.126;2023-02-05T16:23:45;11.25;;;5.25;;
842;SDS011;407;48.884;9.126;2023-02-05T16:26:20;14.27;;;7.55;;
842;SDS011;407;48.884;9.126;2023-02-05T16:31:20;12.73;;;5.80;;
842;SDS011;407;48.884;9.126;2023-02-05T16:33:57;13.80;;;6.85;;
842;SDS011;407;48.884;9.126;2023-02-05T16:36:26;12.20;;;6.40;;
842;SDS011;407;48.884;9.126;2023-02-05T16:38:56;11.87;;;6.20;;
842;SDS011;407;48.884;9.126;2023-02-05T16:41:25;12.55;;;5.85;;
842;SDS011;407;48.884;9.126;2023-02-05T16:43:55;11.70;;;4.77;;
842;SDS011;407;48.884;9.126;2023-02-05T16:46:27;13.45;;;5.40;;
842;SDS011;407;48.884;9.126;2023-02-05T16:48:58;21.27;;;9.00;;
842;SDS011;407;48.884;9.126;2023-02-05T16:56:35;21.70;;;9.90;;
842;SDS011;407;48.884;9.126;2023-02-05T17:00:17;27.13;;;11.20;;
842;SDS011;407;48.884;9.126;2023-02-05T17:02:26;30.88;;;14.02;;
842;SDS011;407;48.884;9.126;2023-02-05T17:04:56;34.53;;;12.60;;
842;SDS011;407;48.884;9.126;2023-02-05T17:07:23;21.90;;;8.60;;
842;SDS011;407;48.884;9.126;2023-02-05T17:09:49;13.35;;;6.80;;
842;SDS011;407;48.884;9.126;2023-02-05T17:17:23;10.05;;;4.93;;
842;SDS011;407;48.884;9.126;2023-02-05T17:22:42;12.07;;;5.50;;
842;SDS011;407;48.884;9.126;2023-02-05T17:25:30;12.70;;;6.68;;
842;SDS011;407;48.884;9.126;2023-02-05T17:27:59;13.60;;;6.03;;
842;SDS011;407;48.884;9.126;2023-02-05T17:30:26;13.10;;;5.90;;
842;SDS011;407;48.884;9.126;2023-02-05T17:32:52;12.50;;;6.10;;
842;SDS011;407;48.884;9.126;2023-02-05T17:35:19;12.63;;;6.85;;
842;SDS011;407;48.884;9.126;2023-02-05T17:37:52;12.95;;;7.90;;
842;SDS011;407;48.884;9.126;2023-02-05T17:40:18;11.73;;;6.00;;
842;SDS011;407;48.884;9.126;2023-02-05T17:42:45;13.10;;;6.30;;
842;SDS011;407;48.884;9.126;2023-02-05T17:45:21;13.20;;;7.00;;
842;SDS011;407;48.884;9.126;2023-02-05T17:47:52;13.95;;;5.90;;
842;SDS011;407;48.884;9.126;2023-02-05T17:50:18;11.93;;;5.90;;
842;SDS011;407;48.884;9.126;2023-02-05T17:52:44;12.80;;;6.13;;
842;SDS011;407;48.884;9.126;2023-02-05T17:55:13;12.63;;;6.28;;
842;SDS011;407;48.884;9.126;2023-02-05T17:57:42;14.40;;;6.90;;
842;SDS011;407;48.884;9.126;2023-02-05T18:00:19;13.98;;;7.50;;
842;SDS011;407;48.884;9.126;2023-02-05T18:02:47;13.77;;;6.73;;
842;SDS011;407;48.884;9.126;2023-02-05T18:05:13;15.13;;;7.78;;
842;SDS011;407;48.884;9.126;2023-02-05T18:07:43;19.23;;;10.23;;
842;SDS011;407;48.884;9.126;2023-02-05T18:10:16;12.43;;;6.68;;
842;SDS011;407;48.884;9.126;2023-02-05T18:12:52;12.57;;;5.75;;
842;SDS011;407;48.884;9.126;2023-02-05T18:15:19;13.35;;;6.25;;
842;SDS011;407;48.884;9.126;2023-02-05T18:17:45;16.23;;;7.05;;
842;SDS011;407;48.884;9.126;2023-02-05T18:20:11;12.67;;;6.90;;
842;SDS011;407;48.884;9.126;2023-02-05T18:22:38;12.90;;;6.05;;
842;SDS011;407;48.884;9.126;2023-02-05T18:25:04;14.57;;;6.82;;
842;SDS011;407;48.884;9.126;2023-02-05T18:27:30;10.55;;;4.30;;
842;SDS011;407;48.884;9.126;2023-02-05T18:29:57;10.75;;;5.10;;
842;SDS011;407;48.884;9.126;2023-02-05T18:32:22;11.23;;;5.80;;
842;SDS011;407;48.884;9.126;2023-02-05T18:34:48;10.95;;;4.70;;
842;SDS011;407;48.884;9.126;2023-02-05T18:37:15;11.37;;;5.80;;
842;SDS011;407;48.884;9.126;2023-02-05T18:39:41;10.25;;;4.63;;
842;SDS011;407;48.884;9.126;2023-02-05T18:42:10;10.73;;;5.03;;
842;SDS011;407;48.884;9.126;2023-02-05T18:44:36;10.75;;;5.28;;